Time;durP1;ratioP1;P1;durP2;ratioP2;P2;SDS_P1;SDS_P2;PMS_P1;PMS_P2;Temp;Humidity;BMP_temperature;BMP_pressure;BME280_temperature;BME280_humidity;BME280_pressure;Samples;Min_cycle;Max_cycle;Signal;HPM_P1;HPM_P2
2022/03/16 00:01:38;;;;;;;58.72;27.02;;;4.60;99.90;;;;;;5068077;22;20050;-80
2022/03/16 00:04:04;;;;;;;57.13;27.30;;;5.30;99.90;;;;;;5060231;28;20043;-80
2022/03/16 00:06:30;;;;;;;56.53;26.65;;;4.50;99.90;;;;;;5060121;28;20127;-80
2022/03/16 00:08:55;;;;;;;56.20;27.13;;;4.90;99.90;;;;;;5076878;28;20051;-80
2022/03/16 00:11:21;;;;;;;51.50;25.63;;;4.50;99.90;;;;;;5071308;22;20044;-80
2022/03/16 00:13:47;;;;;;;49.97;25.38;;;4.40;99.90;;;;;;5067945;22;20082;-80
2022/03/16 00:16:12;;;;;;;51.03;25.30;;;4.40;99.90;;;;;;5060086;28;20048;-80
2022/03/16 00:21:03;;;;;;;56.30;26.35;;;4.30;99.90;;;;;;5151247;22;20103;-80
2022/03/16 00:23:29;;;;;;;53.45;26.02;;;4.30;99.90;;;;;;5103733;27;20396;-80
2022/03/16 00:25:55;;;;;;;57.15;27.17;;;4.30;99.90;;;;;;5120061;27;20113;-80
2022/03/16 00:28:20;;;;;;;55.78;26.77;;;4.30;99.90;;;;;;5103337;27;20051;-80
2022/03/16 00:30:46;;;;;;;53.80;25.98;;;4.30;99.90;;;;;;5112499;22;20499;-80
2022/03/16 00:33:12;;;;;;;53.92;27.02;;;5.00;99.90;;;;;;5118677;27;20059;-80
2022/03/16 00:35:38;;;;;;;51.85;25.95;;;4.30;99.90;;;;;;5120379;27;20375;-80
2022/03/16 00:38:04;;;;;;;63.95;27.90;;;4.30;99.90;;;;;;5103247;27;20043;-80
2022/03/16 00:40:32;;;;;;;55.22;27.52;;;4.20;99.90;;;;;;5137630;27;20126;-80
2022/03/16 00:42:58;;;;;;;59.53;27.60;;;4.60;99.90;;;;;;5119571;27;20035;-80
2022/03/16 00:45:24;;;;;;;56.42;26.52;;;5.30;99.90;;;;;;5119579;27;20035;-80
2022/03/16 00:47:50;;;;;;;59.08;27.13;;;4.30;99.90;;;;;;5101959;27;20082;-80
2022/03/16 00:50:16;;;;;;;53.75;26.60;;;4.60;99.90;;;;;;5119520;27;20093;-80
2022/03/16 00:52:41;;;;;;;52.60;26.05;;;4.70;99.90;;;;;;5102397;27;20129;-80
2022/03/16 00:55:07;;;;;;;57.00;27.10;;;4.40;99.90;;;;;;5136922;27;20047;-80
2022/03/16 00:57:33;;;;;;;49.33;26.33;;;4.10;99.90;;;;;;5102742;27;20039;-80
2022/03/16 00:59:59;;;;;;;50.95;26.38;;;4.90;99.90;;;;;;5119808;27;20106;-80
2022/03/16 01:02:25;;;;;;;51.72;25.70;;;4.40;99.90;;;;;;5102781;28;20071;-80
2022/03/16 01:04:50;;;;;;;61.90;27.13;;;4.60;99.90;;;;;;5119599;27;20050;-80
2022/03/16 01:07:17;;;;;;;58.78;27.95;;;4.00;99.90;;;;;;5136526;27;20108;-80
2022/03/16 01:09:43;;;;;;;57.17;27.35;;;4.80;99.90;;;;;;5101953;28;20485;-80
2022/03/16 01:12:09;;;;;;;54.97;27.55;;;3.90;99.90;;;;;;5119334;28;20083;-80
2022/03/16 01:14:35;;;;;;;58.10;27.77;;;3.90;99.90;;;;;;5101950;28;20047;-80
2022/03/16 01:17:01;;;;;;;54.92;27.30;;;3.90;99.90;;;;;;5136409;28;20070;-80
2022/03/16 01:19:28;;;;;;;59.08;28.08;;;3.90;99.90;;;;;;5118868;28;20050;-80
2022/03/16 01:21:53;;;;;;;61.65;29.73;;;4.30;99.90;;;;;;5101760;28;20035;-80
2022/03/16 01:24:19;;;;;;;73.85;30.23;;;3.80;99.90;;;;;;5119002;28;20103;-80
2022/03/16 01:26:45;;;;;;;66.72;31.13;;;3.80;99.90;;;;;;5101771;28;20048;-80
2022/03/16 01:29:11;;;;;;;68.13;30.00;;;4.10;99.90;;;;;;5099451;22;20056;-80
2022/03/16 01:31:36;;;;;;;70.30;31.00;;;4.70;99.90;;;;;;5058043;28;20110;-80
2022/03/16 01:34:03;;;;;;;67.43;31.10;;;4.60;99.90;;;;;;5075243;28;20121;-80
2022/03/16 01:36:28;;;;;;;71.05;32.25;;;3.80;99.90;;;;;;5075079;28;20131;-80
2022/03/16 01:38:54;;;;;;;68.18;30.75;;;3.90;99.90;;;;;;5058313;28;20079;-80
2022/03/16 01:41:20;;;;;;;67.78;31.20;;;4.40;99.90;;;;;;5057970;28;20040;-80
2022/03/16 01:43:49;;;;;;;64.15;30.15;;;4.50;99.90;;;;;;5097022;22;20422;-80
2022/03/16 01:46:14;;;;;;;72.32;32.42;;;3.90;99.90;;;;;;5075679;28;20051;-80
2022/03/16 01:48:40;;;;;;;67.25;30.95;;;3.70;99.90;;;;;;5061285;28;20044;-80
2022/03/16 01:51:06;;;;;;;69.25;32.17;;;3.90;99.90;;;;;;5061854;28;20052;-80
2022/03/16 01:53:31;;;;;;;68.25;31.10;;;3.90;99.90;;;;;;5060940;28;20380;-80
2022/03/16 01:55:57;;;;;;;74.68;33.70;;;4.60;99.90;;;;;;5107571;22;20131;-80
2022/03/16 01:58:23;;;;;;;76.30;33.72;;;4.90;99.90;;;;;;5111608;22;20517;-80
2022/03/16 02:00:49;;;;;;;77.60;34.45;;;4.70;99.90;;;;;;5066910;28;20106;-80
2022/03/16 02:03:15;;;;;;;75.88;34.10;;;3.80;99.90;;;;;;5083085;28;20106;-80
2022/03/16 02:08:10;;;;;;;78.00;33.67;;;3.80;99.90;;;;;;5159188;22;20070;-80
2022/03/16 02:10:36;;;;;;;78.97;34.45;;;3.70;99.90;;;;;;5136007;27;20054;-80
2022/03/16 02:13:02;;;;;;;77.22;35.08;;;4.60;99.90;;;;;;5142479;22;20043;-80
2022/03/16 02:15:28;;;;;;;80.38;34.63;;;4.70;99.90;;;;;;5130755;22;20519;-80
2022/03/16 02:17:57;;;;;;;76.00;33.92;;;4.30;99.90;;;;;;5062911;28;20094;-80
2022/03/16 02:20:24;;;;;;;75.20;34.30;;;3.80;99.90;;;;;;5073759;22;20044;-80
2022/03/16 02:22:51;;;;;;;72.03;32.75;;;3.80;99.90;;;;;;5081968;28;20055;-80
2022/03/16 02:25:17;;;;;;;75.88;33.35;;;3.70;99.90;;;;;;5067324;28;20043;-80
2022/03/16 02:27:42;;;;;;;65.72;31.83;;;4.70;99.90;;;;;;5070204;22;20068;-80
2022/03/16 02:30:09;;;;;;;74.00;33.20;;;3.70;99.90;;;;;;5073395;22;20105;-80
2022/03/16 02:32:34;;;;;;;73.13;32.60;;;3.60;99.90;;;;;;5069695;22;20140;-81
2022/03/16 02:35:00;;;;;;;77.45;33.05;;;4.40;99.90;;;;;;5064200;28;20068;-80
2022/03/16 02:37:26;;;;;;;72.72;33.20;;;3.60;99.90;;;;;;5085927;22;20055;-80
2022/03/16 02:39:52;;;;;;;77.82;33.97;;;3.60;99.90;;;;;;5080532;22;20051;-80
2022/03/16 02:42:17;;;;;;;78.47;35.28;;;4.30;99.90;;;;;;5062124;28;20052;-80
2022/03/16 02:44:43;;;;;;;82.72;35.63;;;4.00;99.90;;;;;;5073782;22;20559;-80
2022/03/16 02:47:09;;;;;;;70.57;34.10;;;3.60;99.90;;;;;;5069771;22;20049;-80
2022/03/16 02:49:41;;;;;;;75.10;34.17;;;4.40;99.90;;;;;;5061591;28;20044;-80
2022/03/16 02:52:08;;;;;;;70.95;32.30;;;3.60;99.90;;;;;;5063061;28;20048;-80
2022/03/16 02:54:34;;;;;;;65.22;31.88;;;3.50;99.90;;;;;;5064246;28;20098;-80
2022/03/16 02:57:00;;;;;;;68.15;32.08;;;3.50;99.90;;;;;;5063986;28;20032;-80
2022/03/16 02:59:27;;;;;;;74.78;34.00;;;3.50;99.90;;;;;;5064579;28;20797;-80
2022/03/16 03:01:53;;;;;;;70.28;33.03;;;3.40;99.90;;;;;;5080939;28;20044;-80
2022/03/16 03:04:18;;;;;;;85.32;36.67;;;3.90;99.90;;;;;;5065047;28;20048;-80
2022/03/16 03:06:44;;;;;;;81.30;37.65;;;3.50;99.90;;;;;;5064287;28;20047;-80
2022/03/16 03:09:10;;;;;;;81.28;36.25;;;3.40;99.90;;;;;;5064179;28;20040;-80
2022/03/16 03:11:35;;;;;;;81.68;35.83;;;3.40;99.90;;;;;;5080604;28;20490;-80
2022/03/16 03:14:01;;;;;;;90.97;39.20;;;3.50;99.90;;;;;;5089828;22;20425;-80
2022/03/16 03:16:27;;;;;;;90.60;38.78;;;3.40;99.90;;;;;;5064255;28;20460;-80
2022/03/16 03:18:52;;;;;;;84.35;37.72;;;3.50;99.90;;;;;;5064012;28;20131;-80
2022/03/16 03:21:19;;;;;;;97.25;40.25;;;3.50;99.90;;;;;;5064386;28;20055;-80
2022/03/16 03:23:45;;;;;;;91.45;39.30;;;3.40;99.90;;;;;;5063432;28;20048;-80
2022/03/16 03:26:10;;;;;;;85.85;38.13;;;3.40;99.90;;;;;;5080210;28;20051;-80
2022/03/16 03:28:36;;;;;;;90.28;39.42;;;3.70;99.90;;;;;;5081432;28;20044;-80
2022/03/16 03:31:03;;;;;;;94.35;39.95;;;3.80;99.90;;;;;;5098716;28;20116;-80
2022/03/16 03:33:30;;;;;;;86.18;38.10;;;3.40;99.90;;;;;;5098474;28;20470;-80
2022/03/16 03:35:55;;;;;;;77.55;35.97;;;3.40;99.90;;;;;;5080400;28;20055;-80
2022/03/16 03:38:21;;;;;;;86.60;38.28;;;3.40;99.90;;;;;;5080135;28;20044;-80
2022/03/16 03:40:46;;;;;;;86.10;38.40;;;4.20;99.90;;;;;;5098589;28;20048;-80
2022/03/16 03:43:12;;;;;;;84.55;37.33;;;3.40;99.90;;;;;;5070622;22;20110;-80
2022/03/16 03:45:38;;;;;;;90.45;39.33;;;2.80;99.90;;;;;;5080409;28;20410;-80
2022/03/16 03:48:04;;;;;;;88.90;38.78;;;3.30;99.90;;;;;;5063082;28;20051;-80
2022/03/16 03:50:30;;;;;;;84.07;38.63;;;3.30;99.90;;;;;;5098128;28;20040;-80
2022/03/16 03:52:56;;;;;;;104.22;41.38;;;3.60;99.90;;;;;;5063272;28;20040;-80
2022/03/16 03:55:22;;;;;;;95.80;41.88;;;3.30;99.90;;;;;;5062844;28;20071;-80
2022/03/16 03:57:48;;;;;;;92.15;41.55;;;4.30;99.90;;;;;;5097588;28;20508;-80
2022/03/16 04:00:14;;;;;;;87.72;39.78;;;3.40;99.90;;;;;;5079511;28;20044;-80
2022/03/16 04:02:47;;;;;;;104.38;42.00;;;3.30;99.90;;;;;;5062939;28;20090;-80
2022/03/16 04:05:13;;;;;;;84.80;39.13;;;3.30;99.90;;;;;;5079426;28;20051;-80
2022/03/16 04:07:38;;;;;;;98.10;42.53;;;3.30;99.90;;;;;;5096232;28;20055;-80
2022/03/16 04:10:05;;;;;;;97.25;41.95;;;3.30;99.90;;;;;;5079319;28;20040;-80
2022/03/16 04:12:30;;;;;;;95.85;41.97;;;3.30;99.90;;;;;;5062867;28;20129;-80
2022/03/16 04:14:56;;;;;;;102.65;42.88;;;3.30;99.90;;;;;;5079676;28;20043;-80
2022/03/16 04:17:22;;;;;;;98.50;42.13;;;3.20;99.90;;;;;;5062796;28;20051;-81
2022/03/16 04:19:48;;;;;;;95.82;40.50;;;3.20;99.90;;;;;;5062607;28;20445;-80
2022/03/16 04:22:13;;;;;;;88.28;40.40;;;3.20;99.90;;;;;;5079208;28;20111;-80
2022/03/16 04:24:39;;;;;;;91.03;42.03;;;3.20;99.90;;;;;;5080024;28;20075;-80
2022/03/16 04:27:05;;;;;;;85.28;39.92;;;3.20;99.90;;;;;;5062673;28;20407;-80
2022/03/16 04:29:30;;;;;;;87.03;38.88;;;3.20;99.90;;;;;;5096423;28;20128;-80
2022/03/16 04:31:58;;;;;;;78.70;37.58;;;3.20;99.90;;;;;;5098065;28;20052;-80
2022/03/16 04:34:24;;;;;;;76.75;37.15;;;4.30;99.90;;;;;;5079780;28;20047;-78
2022/03/16 04:36:49;;;;;;;88.50;37.95;;;3.90;99.90;;;;;;5079713;28;20422;-80
2022/03/16 04:39:16;;;;;;;81.55;37.67;;;4.30;99.90;;;;;;5096795;28;20064;-80
2022/03/16 04:41:43;;;;;;;83.65;38.00;;;3.00;99.90;;;;;;5078974;28;20055;-80
2022/03/16 04:44:09;;;;;;;94.05;41.22;;;3.10;99.90;;;;;;5062401;28;20379;-80
2022/03/16 04:46:34;;;;;;;101.55;43.22;;;3.00;99.90;;;;;;5078679;28;20058;-80
2022/03/16 04:49:00;;;;;;;90.97;42.25;;;3.10;99.90;;;;;;5061586;28;20040;-80
2022/03/16 04:51:26;;;;;;;111.28;46.28;;;3.10;99.90;;;;;;5062001;28;20123;-80
2022/03/16 04:53:52;;;;;;;102.70;44.40;;;3.10;99.90;;;;;;5079043;28;20044;-79
2022/03/16 04:56:17;;;;;;;113.72;47.30;;;3.20;99.90;;;;;;5096754;28;20044;-80
2022/03/16 04:58:43;;;;;;;100.55;44.53;;;3.20;99.90;;;;;;5095276;28;20489;-80
2022/03/16 05:01:09;;;;;;;105.93;45.60;;;3.90;99.90;;;;;;5076656;22;20053;-82
2022/03/16 05:03:40;;;;;;;112.25;47.00;;;3.30;99.90;;;;;;5077945;22;20049;-82
2022/03/16 05:06:06;;;;;;;105.18;45.33;;;3.20;99.90;;;;;;5101157;22;20451;-82
2022/03/16 05:08:35;;;;;;;110.72;45.85;;;3.90;99.90;;;;;;5120711;22;20046;-82
2022/03/16 05:11:02;;;;;;;103.72;43.83;;;3.20;99.90;;;;;;5120594;22;20472;-82
2022/03/16 05:13:28;;;;;;;98.07;44.15;;;3.10;99.90;;;;;;5092045;22;20052;-82
2022/03/16 05:15:54;;;;;;;90.80;42.50;;;3.10;99.90;;;;;;5109955;22;20039;-81
2022/03/16 05:18:19;;;;;;;96.70;42.70;;;3.20;99.90;;;;;;5097283;28;20056;-79
2022/03/16 05:20:45;;;;;;;101.65;42.80;;;3.10;99.90;;;;;;5098687;28;20086;-80
2022/03/16 05:23:11;;;;;;;91.93;42.05;;;3.10;99.90;;;;;;5115447;28;20116;-80
2022/03/16 05:25:36;;;;;;;87.57;41.03;;;3.90;99.90;;;;;;5098198;28;20039;-80
2022/03/16 05:28:02;;;;;;;110.70;46.78;;;3.10;99.90;;;;;;5116282;28;20043;-80
2022/03/16 05:30:28;;;;;;;93.55;43.50;;;3.20;99.90;;;;;;5099725;22;20044;-80
2022/03/16 05:32:57;;;;;;;110.03;47.75;;;3.40;99.90;;;;;;5087953;28;20036;-80
2022/03/16 05:35:22;;;;;;;114.13;46.40;;;3.20;99.90;;;;;;5083954;28;20032;-79
2022/03/16 05:37:48;;;;;;;105.65;45.95;;;3.30;99.90;;;;;;5062385;28;20047;-79
2022/03/16 05:40:14;;;;;;;101.53;45.92;;;3.40;99.90;;;;;;5062259;28;20475;-80
2022/03/16 05:42:40;;;;;;;116.45;46.28;;;3.30;99.90;;;;;;5078688;28;20044;-80
2022/03/16 05:45:06;;;;;;;101.03;45.38;;;3.30;99.90;;;;;;5079662;28;20074;-79
2022/03/16 05:47:32;;;;;;;95.97;44.45;;;3.30;99.90;;;;;;5079750;28;20050;-79
2022/03/16 05:49:58;;;;;;;107.72;46.05;;;3.80;99.90;;;;;;5061964;28;20048;-79
2022/03/16 05:52:25;;;;;;;83.35;40.72;;;3.20;99.90;;;;;;5061642;28;20053;-79
2022/03/16 05:54:53;;;;;;;92.90;42.92;;;3.20;99.90;;;;;;5061202;28;20056;-80
2022/03/16 05:57:19;;;;;;;83.72;40.05;;;3.20;99.90;;;;;;5061726;28;20036;-80
2022/03/16 05:59:45;;;;;;;85.30;39.72;;;3.20;99.90;;;;;;5061175;28;20060;-80
2022/03/16 06:02:12;;;;;;;90.97;40.58;;;4.30;99.90;;;;;;5060709;28;20048;-79
2022/03/16 06:04:39;;;;;;;80.40;37.97;;;3.10;99.90;;;;;;5061409;28;20048;-80
2022/03/16 06:07:06;;;;;;;87.55;40.42;;;3.10;99.90;;;;;;5077383;28;20554;-79
2022/03/16 06:09:32;;;;;;;80.95;40.10;;;3.00;99.90;;;;;;5065893;28;20066;-80
2022/03/16 06:11:59;;;;;;;87.75;41.63;;;2.90;99.90;;;;;;5060456;28;20495;-80
2022/03/16 06:14:25;;;;;;;84.97;39.67;;;3.00;99.90;;;;;;5060359;28;20476;-80
2022/03/16 06:16:52;;;;;;;92.05;41.47;;;4.10;99.90;;;;;;5078065;28;20067;-79
2022/03/16 06:19:18;;;;;;;90.97;42.83;;;3.00;99.90;;;;;;5077667;28;20040;-79
2022/03/16 06:21:44;;;;;;;96.68;43.63;;;3.70;99.90;;;;;;5077490;28;20055;-80
2022/03/16 06:24:10;;;;;;;98.70;44.78;;;3.10;99.90;;;;;;5078261;28;20070;-79
2022/03/16 06:26:36;;;;;;;97.05;45.08;;;3.90;99.90;;;;;;5078829;28;20051;-80
2022/03/16 06:29:01;;;;;;;99.13;46.42;;;3.60;99.90;;;;;;5080938;28;20048;-79
2022/03/16 06:31:27;;;;;;;86.47;44.40;;;3.90;99.90;;;;;;5064480;28;20106;-79
2022/03/16 06:33:53;;;;;;;84.35;42.17;;;3.30;99.90;;;;;;5099184;28;20442;-80
2022/03/16 06:36:18;;;;;;;91.10;44.47;;;4.10;99.90;;;;;;5081130;28;20044;-79
2022/03/16 06:38:44;;;;;;;92.60;44.35;;;3.50;99.90;;;;;;5063703;28;20398;-79
2022/03/16 06:41:10;;;;;;;98.00;44.63;;;3.50;99.90;;;;;;5129061;22;20107;-82
2022/03/16 06:43:42;;;;;;;98.82;45.22;;;3.60;99.90;;;;;;5123917;22;20512;-81
2022/03/16 06:46:08;;;;;;;93.18;44.40;;;3.70;99.90;;;;;;5114077;22;20051;-82
2022/03/16 06:48:33;;;;;;;83.82;41.88;;;3.70;99.90;;;;;;5126752;27;20043;-82
2022/03/16 06:50:59;;;;;;;88.53;43.65;;;3.70;99.90;;;;;;5117195;22;21291;-82
2022/03/16 06:53:27;;;;;;;85.13;41.55;;;3.70;99.90;;;;;;5109007;27;20043;-82
2022/03/16 06:55:53;;;;;;;87.82;43.05;;;3.70;99.90;;;;;;5088241;22;20063;-82
2022/03/16 06:58:19;;;;;;;88.75;41.30;;;4.00;99.90;;;;;;5077455;22;20519;-77
2022/03/16 07:00:45;;;;;;;82.40;42.08;;;3.80;99.90;;;;;;5085814;22;20079;-77
2022/03/16 07:03:10;;;;;;;82.93;39.67;;;3.80;99.90;;;;;;5095159;28;20379;-77
2022/03/16 07:05:43;;;;;;;79.05;39.75;;;3.80;99.90;;;;;;5093021;22;20149;-78
2022/03/16 07:08:11;;;;;;;77.28;39.13;;;3.90;99.90;;;;;;5076089;28;20387;-77
2022/03/16 07:10:38;;;;;;;77.55;39.40;;;3.90;99.90;;;;;;5095791;28;20205;-77
2022/03/16 07:13:04;;;;;;;83.78;40.67;;;4.20;99.90;;;;;;5077450;28;20367;-77
2022/03/16 07:15:32;;;;;;;82.03;41.35;;;4.10;99.90;;;;;;5077159;28;20050;-77
2022/03/16 07:17:58;;;;;;;78.97;39.97;;;4.10;99.90;;;;;;5060311;28;20429;-77
2022/03/16 07:20:24;;;;;;;74.05;38.97;;;4.20;99.90;;;;;;5077644;28;20040;-77
2022/03/16 07:23:03;;;;;;;76.47;40.75;;;4.20;99.90;;;;;;5095600;28;20110;-77
2022/03/16 07:25:29;;;;;;;75.47;39.05;;;4.30;99.90;;;;;;5060602;28;20118;-77
2022/03/16 07:27:54;;;;;;;80.93;41.38;;;4.80;99.90;;;;;;5095537;28;20079;-77
2022/03/16 07:30:20;;;;;;;78.20;40.90;;;4.40;99.90;;;;;;5124091;22;20395;-78
2022/03/16 07:32:47;;;;;;;81.68;42.00;;;4.50;99.90;;;;;;5081156;28;20054;-77
2022/03/16 07:35:12;;;;;;;90.22;43.30;;;5.20;99.90;;;;;;5117968;28;20046;-81
2022/03/16 07:37:40;;;;;;;79.57;42.47;;;4.80;99.90;;;;;;5090570;22;20060;-81
2022/03/16 07:40:06;;;;;;;84.43;43.08;;;5.10;99.90;;;;;;5095287;28;20048;-78
2022/03/16 07:42:32;;;;;;;85.88;42.60;;;4.80;99.90;;;;;;5076962;28;20052;-78
2022/03/16 07:44:58;;;;;;;79.63;42.80;;;4.90;99.90;;;;;;5076992;28;20076;-78
2022/03/16 07:47:25;;;;;;;78.78;42.15;;;5.60;99.90;;;;;;5060166;28;20043;-78
2022/03/16 07:49:52;;;;;;;77.25;41.20;;;6.00;99.90;;;;;;5095205;28;20044;-78
2022/03/16 07:52:20;;;;;;;75.70;41.45;;;5.60;99.90;;;;;;5060620;28;20036;-78
2022/03/16 07:54:45;;;;;;;74.15;41.25;;;5.30;99.90;;;;;;5077511;28;20044;-79
2022/03/16 07:57:11;;;;;;;81.60;42.30;;;5.90;99.90;;;;;;5076526;28;20127;-79
2022/03/16 07:59:37;;;;;;;81.60;41.22;;;5.40;99.90;;;;;;5076983;28;20043;-79
2022/03/16 08:02:03;;;;;;;83.35;44.75;;;5.90;99.90;;;;;;5060590;28;20048;-78
2022/03/16 08:04:28;;;;;;;90.00;44.97;;;5.60;99.90;;;;;;5077055;28;20094;-78
2022/03/16 08:06:54;;;;;;;86.82;44.72;;;5.10;99.90;;;;;;5060529;28;20044;-78
2022/03/16 08:09:20;;;;;;;82.28;44.17;;;6.30;99.90;;;;;;5076733;28;20097;-79
2022/03/16 08:11:45;;;;;;;82.35;43.63;;;5.90;99.90;;;;;;5110421;22;20039;-81
2022/03/16 08:14:12;;;;;;;74.55;42.30;;;6.10;99.90;;;;;;5106843;27;20043;-81
2022/03/16 08:19:03;;;;;;;75.20;40.88;;;6.30;99.90;;;;;;5162290;22;20865;-81
2022/03/16 08:21:29;;;;;;;67.85;38.55;;;7.10;99.90;;;;;;5092499;22;20048;-83
2022/03/16 08:23:55;;;;;;;65.47;35.67;;;6.60;99.90;;;;;;5086994;22;20026;-82
2022/03/16 08:26:21;;;;;;;61.53;33.13;;;6.70;99.90;;;;;;5093333;22;20047;-82
2022/03/16 08:28:47;;;;;;;55.25;30.55;;;7.30;99.90;;;;;;5072867;22;20136;-78
2022/03/16 08:31:14;;;;;;;48.28;28.45;;;6.90;99.90;;;;;;5074434;28;20441;-78
2022/03/16 08:33:41;;;;;;;47.30;28.02;;;7.80;99.90;;;;;;5073478;28;20040;-78
2022/03/16 08:36:07;;;;;;;50.30;27.85;;;7.70;99.90;;;;;;5074301;28;20119;-78
2022/03/16 08:38:38;;;;;;;45.38;26.45;;;7.40;99.90;;;;;;5073288;28;20048;-79
2022/03/16 08:41:06;;;;;;;43.35;23.83;;;7.50;99.90;;;;;;5072742;28;20124;-79
2022/03/16 08:43:31;;;;;;;40.72;24.05;;;7.60;99.90;;;;;;5056398;28;20044;-78
2022/03/16 08:45:58;;;;;;;35.00;21.90;;;8.80;99.90;;;;;;5073237;28;20101;-78
2022/03/16 08:48:24;;;;;;;36.13;20.73;;;8.20;99.90;;;;;;5057541;28;20056;-78
2022/03/16 08:53:21;;;;;;;31.48;18.75;;;8.20;99.90;;;;;;5154300;22;20043;-81
2022/03/16 08:55:47;;;;;;;32.38;18.80;;;8.50;99.90;;;;;;5095640;22;20048;-82
2022/03/16 08:58:14;;;;;;;32.20;18.25;;;8.50;99.90;;;;;;5093971;22;20628;-81
2022/03/16 09:00:46;;;;;;;27.38;17.42;;;8.90;99.90;;;;;;5131070;22;20160;-82
2022/03/16 09:03:12;;;;;;;25.35;15.95;;;9.50;99.90;;;;;;5105330;22;20051;-79
2022/03/16 09:05:41;;;;;;;26.13;15.85;;;8.90;99.90;;;;;;5094154;22;20105;-82
2022/03/16 09:08:06;;;;;;;26.08;15.70;;;9.00;99.90;;;;;;5088593;22;20090;-78
2022/03/16 09:10:32;;;;;;;26.75;15.15;;;9.00;99.90;;;;;;5073672;28;20056;-78
2022/03/16 09:12:58;;;;;;;24.23;15.35;;;9.20;99.90;;;;;;5073065;28;20040;-78
2022/03/16 09:15:23;;;;;;;24.77;15.07;;;9.50;99.90;;;;;;5072598;28;20078;-78
2022/03/16 09:17:49;;;;;;;23.90;14.18;;;9.40;99.90;;;;;;5055612;28;20166;-78
2022/03/16 09:20:15;;;;;;;21.92;13.50;;;9.60;99.90;;;;;;5072622;28;20052;-78
2022/03/16 09:22:40;;;;;;;24.25;13.77;;;9.90;99.90;;;;;;5055566;28;20051;-78
2022/03/16 09:25:07;;;;;;;26.27;13.95;;;9.70;99.90;;;;;;5072194;28;20049;-78
2022/03/16 09:27:37;;;;;;;24.88;13.35;;;9.70;99.90;;;;;;5055509;28;20380;-79
2022/03/16 09:30:05;;;;;;;22.83;13.35;;;9.90;99.90;;;;;;5074124;28;20037;-78
2022/03/16 09:32:33;;;;;;;24.92;12.85;;;10.00;99.90;;;;;;5073545;28;20048;-78
2022/03/16 09:34:59;;;;;;;22.05;11.68;;;10.30;99.90;;;;;;5076622;28;20063;-78
2022/03/16 09:37:25;;;;;;;21.25;12.13;;;10.80;99.90;;;;;;5078918;28;20055;-79
2022/03/16 09:39:51;;;;;;;19.75;11.35;;;10.40;99.90;;;;;;5075850;28;20033;-78
2022/03/16 09:42:19;;;;;;;21.27;11.73;;;11.40;99.90;;;;;;5056552;28;20403;-78
2022/03/16 09:47:19;;;;;;;18.10;10.07;;;10.80;99.90;;;;;;5141312;22;20100;-81
2022/03/16 09:49:45;;;;;;;19.85;9.90;;;11.00;99.90;;;;;;5105560;28;20478;-81
2022/03/16 09:52:11;;;;;;;15.48;9.52;;;11.00;99.90;;;;;;5124323;28;20118;-82
2022/03/16 09:54:37;;;;;;;18.23;9.63;;;11.10;99.90;;;;;;5125527;28;20040;-82
2022/03/16 09:57:03;;;;;;;17.15;9.15;;;11.10;99.90;;;;;;5113878;28;20108;-82
2022/03/16 09:59:28;;;;;;;17.65;10.40;;;11.20;99.90;;;;;;5113337;28;20047;-82
2022/03/16 10:02:09;;;;;;;16.73;9.73;;;11.20;99.90;;;;;;5126047;28;20074;-81
2022/03/16 10:04:36;;;;;;;18.33;10.45;;;11.20;99.90;;;;;;5124451;28;20047;-82
2022/03/16 10:07:05;;;;;;;16.63;10.13;;;11.20;99.90;;;;;;5107616;28;20095;-83
2022/03/16 10:15:18;;;;;;;16.75;10.02;;;11.50;99.90;;;;;;5123029;28;20130;-83
2022/03/16 10:17:48;;;;;;;20.92;10.50;;;11.60;99.90;;;;;;5106617;28;20135;-82
2022/03/16 10:20:28;;;;;;;19.20;10.45;;;11.70;99.90;;;;;;5110430;27;20063;-82
2022/03/16 10:23:02;;;;;;;17.27;9.80;;;11.80;99.90;;;;;;5094502;22;20406;-80
2022/03/16 10:25:30;;;;;;;14.73;9.48;;;11.90;99.90;;;;;;5066685;28;20041;-82
2022/03/16 10:28:25;;;;;;;17.67;9.98;;;12.50;99.90;;;;;;5066424;28;20044;-82
2022/03/16 10:30:58;;;;;;;15.93;9.48;;;12.30;99.90;;;;;;5084375;28;20418;-82
2022/03/16 10:33:36;;;;;;;17.23;9.88;;;12.20;99.90;;;;;;5083156;28;20395;-82
2022/03/16 10:36:07;;;;;;;14.82;8.80;;;12.30;99.90;;;;;;5089277;22;20086;-82
2022/03/16 10:38:50;;;;;;;12.52;7.40;;;12.40;99.90;;;;;;5125855;27;20054;-82
2022/03/16 10:47:00;;;;;;;14.55;8.85;;;12.40;99.90;;;;;;5125819;27;20106;-82
2022/03/16 10:49:30;;;;;;;14.63;8.55;;;12.50;99.90;;;;;;5109966;27;20102;-82
2022/03/16 10:52:09;;;;;;;14.25;8.20;;;12.50;99.90;;;;;;5112324;27;20470;-82
2022/03/16 10:54:36;;;;;;;14.25;8.60;;;12.70;99.90;;;;;;5110232;27;20110;-82
2022/03/16 10:57:10;;;;;;;13.38;9.10;;;12.80;99.90;;;;;;5110271;27;20047;-81
2022/03/16 10:59:37;;;;;;;12.85;8.55;;;12.90;99.90;;;;;;5109162;27;20074;-81
2022/03/16 11:02:12;;;;;;;17.92;9.13;;;12.90;99.90;;;;;;5144998;27;20047;-81
2022/03/16 11:04:47;;;;;;;14.55;8.80;;;13.00;99.90;;;;;;5128882;22;20135;-82
2022/03/16 11:07:14;;;;;;;13.88;8.40;;;14.00;99.90;;;;;;5104397;22;20047;-82
2022/03/16 11:09:43;;;;;;;12.55;7.53;;;13.60;99.90;;;;;;5119487;22;20383;-82
2022/03/16 11:14:54;;;;;;;14.73;7.73;;;13.30;99.90;;;;;;5128499;22;20055;-81
2022/03/16 11:17:20;;;;;;;13.40;7.95;;;13.40;99.90;;;;;;5104125;22;20110;-81
2022/03/16 11:19:51;;;;;;;16.55;8.82;;;13.50;99.90;;;;;;5041227;22;1119592;-82
2022/03/16 11:22:29;;;;;;;15.10;8.48;;;13.60;99.90;;;;;;5076632;22;20048;-81
2022/03/16 11:25:25;;;;;;;12.85;7.90;;;13.60;99.90;;;;;;5088631;22;20049;-81
2022/03/16 11:27:53;;;;;;;11.88;7.35;;;13.70;99.90;;;;;;5107975;22;20100;-81
2022/03/16 11:30:29;;;;;;;11.70;7.65;;;13.80;99.90;;;;;;5095830;22;20044;-81
2022/03/16 11:33:07;;;;;;;13.30;7.93;;;13.80;99.90;;;;;;5078221;22;20502;-82
2022/03/16 11:35:44;;;;;;;13.40;7.88;;;14.10;99.90;;;;;;5087319;22;20094;-82
2022/03/16 11:38:15;;;;;;;13.38;8.07;;;14.20;99.90;;;;;;5082397;22;20035;-82
2022/03/16 11:40:47;;;;;;;12.70;7.65;;;14.30;99.90;;;;;;5078562;22;20045;-82
2022/03/16 11:43:20;;;;;;;13.02;7.80;;;14.40;99.90;;;;;;5063847;28;20044;-82
2022/03/16 11:45:57;;;;;;;10.60;7.00;;;14.50;99.90;;;;;;5085583;22;20121;-83
2022/03/16 11:48:32;;;;;;;10.40;7.03;;;14.50;99.90;;;;;;5087603;22;20051;-83
2022/03/16 11:51:15;;;;;;;9.55;6.57;;;14.60;99.90;;;;;;5089376;22;20055;-82
2022/03/16 11:56:23;;;;;;;10.35;6.50;;;14.90;99.90;;;;;;5098935;22;20493;-82
2022/03/16 11:58:56;;;;;;;11.77;7.63;;;15.00;99.90;;;;;;5115628;22;20062;-83
2022/03/16 12:01:28;;;;;;;10.10;6.72;;;15.10;99.90;;;;;;5130863;22;20047;-80
2022/03/16 12:04:14;;;;;;;11.95;7.00;;;15.00;99.90;;;;;;5113960;22;20043;-80
2022/03/16 12:06:46;;;;;;;12.48;8.00;;;14.90;99.90;;;;;;5120830;22;20493;-80
2022/03/16 12:09:24;;;;;;;12.00;7.38;;;14.90;99.90;;;;;;5076949;22;20067;-80
2022/03/16 12:15:05;;;;;;;11.77;7.43;;;15.00;99.90;;;;;;5131089;22;20141;-80
2022/03/16 12:17:32;;;;;;;10.98;7.68;;;15.00;99.90;;;;;;5082132;22;20064;-80
2022/03/16 12:20:15;;;;;;;11.30;7.78;;;15.00;99.90;;;;;;5063009;28;20044;-80
2022/03/16 12:22:51;;;;;;;15.32;7.40;;;15.00;99.90;;;;;;5061856;28;20064;-80
2022/03/16 12:25:29;;;;;;;12.98;7.30;;;15.20;99.90;;;;;;5074025;22;20135;-80
2022/03/16 12:30:56;;;;;;;11.32;7.10;;;15.40;99.90;;;;;;5081729;28;20112;-80
2022/03/16 12:33:27;;;;;;;12.48;7.30;;;15.60;99.90;;;;;;5070960;22;20048;-80
2022/03/16 12:36:02;;;;;;;11.45;6.60;;;15.80;99.90;;;;;;5063616;28;20051;-80
2022/03/16 12:38:29;;;;;;;11.70;7.05;;;15.80;99.70;;;;;;5074616;22;20050;-80
2022/03/16 12:43:45;;;;;;;11.30;7.32;;;15.90;98.90;;;;;;5094313;22;20162;-80
2022/03/16 12:46:20;;;;;;;12.20;7.10;;;16.10;99.00;;;;;;5063595;28;20080;-80
2022/03/16 12:48:54;;;;;;;9.43;6.55;;;16.10;96.40;;;;;;5063611;28;20053;-80
2022/03/16 12:51:36;;;;;;;10.90;6.68;;;16.30;94.50;;;;;;5046851;28;20425;-80
2022/03/16 12:54:02;;;;;;;11.45;7.05;;;16.50;94.80;;;;;;5058036;28;20045;-82
2022/03/16 12:56:28;;;;;;;10.90;7.65;;;16.40;96.10;;;;;;5056060;28;20388;-83
2022/03/16 12:58:55;;;;;;;10.57;7.00;;;16.50;94.80;;;;;;5056139;28;20048;-82
2022/03/16 13:01:23;;;;;;;11.18;6.60;;;16.60;95.70;;;;;;5072678;28;20037;-83
2022/03/16 13:04:00;;;;;;;9.77;6.93;;;16.60;94.00;;;;;;5073656;28;20036;-83
2022/03/16 13:06:28;;;;;;;11.15;7.07;;;16.50;92.30;;;;;;5077576;28;20036;-83
2022/03/16 13:08:54;;;;;;;12.77;7.50;;;16.30;93.40;;;;;;5072313;28;20455;-82
2022/03/16 13:11:24;;;;;;;11.68;7.45;;;16.00;93.40;;;;;;5072574;28;20079;-83
2022/03/16 13:14:04;;;;;;;11.48;7.28;;;15.80;93.70;;;;;;5072457;28;20407;-82
2022/03/16 13:16:31;;;;;;;13.30;7.93;;;16.00;93.00;;;;;;5055516;28;20052;-83